Time;durP1;ratioP1;P1;durP2;ratioP2;P2;SDS_P1;SDS_P2;PMS_P1;PMS_P2;Temp;Humidity;BMP_temperature;BMP_pressure;BME280_temperature;BME280_humidity;BME280_pressure;Samples;Min_cycle;Max_cycle;Signal;HPM_P1;HPM_P2
2021/05/29 00:02:30;;;;;;;5.20;4.60;;;;;;;29.14;65.12;100992.16;5072130;28;70108;-34
2021/05/29 00:05:01;;;;;;;5.60;4.85;;;;;;;29.20;65.76;100995.91;5075293;27;66842;-34
2021/05/29 00:07:32;;;;;;;10.85;5.20;;;;;;;29.28;65.92;100999.25;5072195;28;69883;-34
2021/05/29 00:10:04;;;;;;;6.43;5.82;;;;;;;29.32;66.27;101008.59;5068631;27;66107;-34
2021/05/29 00:12:34;;;;;;;7.65;5.55;;;;;;;29.37;66.14;101002.59;5064672;28;70209;-33
2021/05/29 00:15:06;;;;;;;7.30;6.10;;;;;;;29.35;66.86;100997.38;5068404;27;67163;-34
2021/05/29 00:17:37;;;;;;;6.68;5.85;;;;;;;29.49;66.98;101013.59;5072109;28;69493;-34
2021/05/29 00:20:09;;;;;;;7.97;5.97;;;;;;;29.55;66.69;101018.16;5064752;27;64981;-33
2021/05/29 00:22:39;;;;;;;15.83;6.47;;;;;;;29.60;66.20;101021.91;5068347;27;69161;-34
2021/05/29 00:25:11;;;;;;;11.70;6.23;;;;;;;29.65;67.12;101007.00;5072499;28;65750;-35
2021/05/29 00:27:41;;;;;;;15.57;5.85;;;;;;;29.69;67.50;101009.03;5068441;28;70428;-35
2021/05/29 00:30:13;;;;;;;12.10;5.47;;;;;;;29.68;67.33;100999.28;5065231;27;66997;-35
2021/05/29 00:32:43;;;;;;;13.35;5.35;;;;;;;29.77;67.63;101013.41;5068218;28;70070;-35
2021/05/29 00:35:14;;;;;;;7.57;5.38;;;;;;;29.64;67.78;100991.78;5070796;27;67171;-35
2021/05/29 00:37:45;;;;;;;12.40;5.28;;;;;;;29.77;67.76;101006.13;5068851;28;70223;-35
2021/05/29 00:40:16;;;;;;;12.80;5.15;;;;;;;29.91;68.12;101027.75;5076804;27;64881;-35
2021/05/29 00:42:46;;;;;;;7.15;5.30;;;;;;;29.93;67.63;101028.38;5070095;28;69843;-35
2021/05/29 00:45:17;;;;;;;13.85;4.75;;;;;;;29.96;67.61;101033.38;5069690;28;66076;-36
2021/05/29 00:47:48;;;;;;;7.82;5.30;;;;;;;29.90;66.61;101020.69;5073942;28;69766;-35
2021/05/29 00:50:19;;;;;;;15.57;5.13;;;;;;;30.04;65.98;101022.31;5072133;27;66777;-35
2021/05/29 00:52:50;;;;;;;6.30;4.75;;;;;;;30.10;66.35;101032.28;5069326;27;70082;-35
2021/05/29 00:55:21;;;;;;;8.02;4.30;;;;;;;30.17;65.49;101026.84;5073511;27;66192;-35
2021/05/29 00:57:53;;;;;;;6.15;4.90;;;;;;;30.23;65.77;101029.59;5065875;27;69314;-36
2021/05/29 01:00:25;;;;;;;5.47;4.97;;;;;;;30.28;65.25;101027.09;5073437;27;66038;-35
2021/05/29 01:02:55;;;;;;;;;;;;;;;30.12;66.42;101030.22;5067519;28;69790;-35
2021/05/29 01:05:26;;;;;;;5.63;4.50;;;;;;;30.37;65.31;101040.34;5066800;28;66474;-35
2021/05/29 01:07:56;;;;;;;7.13;4.97;;;;;;;30.42;65.02;101025.16;5077039;27;69140;-35
2021/05/29 01:10:27;;;;;;;7.95;4.78;;;;;;;30.49;64.86;101033.25;5073364;28;66634;-35
2021/05/29 01:13:02;;;;;;;8.88;5.22;;;;;;;30.55;64.94;101034.28;5075224;28;70076;-35
2021/05/29 01:15:39;;;;;;;9.15;4.85;;;;;;;30.09;65.27;100938.66;5078261;28;65958;-36
2021/05/29 01:18:15;;;;;;;8.13;4.28;;;;;;;30.36;65.17;100976.47;5078572;28;69956;-36
2021/05/29 01:20:49;;;;;;;5.22;4.57;;;;;;;30.65;64.80;101021.94;5074440;28;66197;-35
2021/05/29 01:23:20;;;;;;;12.63;4.65;;;;;;;30.71;64.70;101026.47;5072874;28;70263;-35
2021/05/29 01:25:50;;;;;;;11.05;4.75;;;;;;;30.75;64.70;101026.88;5074400;28;66001;-35
2021/05/29 01:28:26;;;;;;;8.73;4.90;;;;;;;30.59;65.00;100993.03;5075258;28;70310;-35
2021/05/29 01:31:02;;;;;;;10.38;4.40;;;;;;;30.76;64.82;101020.44;5072654;27;65314;-34
2021/05/29 01:33:35;;;;;;;7.82;5.13;;;;;;;30.82;64.72;101021.47;5072242;28;69929;-35
2021/05/29 01:36:10;;;;;;;8.50;6.75;;;;;;;30.93;65.53;101034.34;5074509;28;64557;-35
2021/05/29 01:38:41;;;;;;;8.95;8.00;;;;;;;30.94;64.69;101027.84;5066961;28;69070;-37
2021/05/29 01:41:15;;;;;;;13.65;8.65;;;;;;;30.98;64.85;101033.66;5072448;28;65862;-37
2021/05/29 01:43:48;;;;;;;18.20;8.20;;;;;;;31.00;64.41;101032.41;5072719;28;69885;-36
2021/05/29 01:46:22;;;;;;;6.90;5.38;;;;;;;30.77;64.50;100983.34;5074627;27;65936;-36
2021/05/29 01:48:52;;;;;;;19.50;5.95;;;;;;;31.01;64.43;101023.25;5077275;27;69932;-36
2021/05/29 01:51:25;;;;;;;8.57;5.45;;;;;;;31.09;64.59;101025.69;5073956;28;66068;-35
2021/05/29 01:53:55;;;;;;;;;;;;;;;30.88;65.66;101034.16;5072799;28;70909;-35
2021/05/29 01:56:26;;;;;;;11.82;4.63;;;;;;;31.08;65.21;101026.72;5074739;27;66193;-36
2021/05/29 01:58:57;;;;;;;16.08;4.82;;;;;;;31.10;65.56;101021.91;5076882;28;69880;-35
2021/05/29 02:01:27;;;;;;;10.48;5.63;;;;;;;31.07;65.82;101021.53;5068078;28;67314;-36
2021/05/29 02:03:58;;;;;;;13.77;5.40;;;;;;;30.91;63.51;101017.47;5069617;28;70687;-35
2021/05/29 02:06:28;;;;;;;6.75;4.53;;;;;;;30.70;61.52;101016.72;5070771;27;66401;-36
2021/05/29 02:08:59;;;;;;;6.57;4.70;;;;;;;30.59;60.71;101020.09;5068386;28;70248;-37
2021/05/29 02:11:30;;;;;;;8.85;4.25;;;;;;;30.38;58.74;101033.91;5073672;28;65736;-35
2021/05/29 02:14:01;;;;;;;7.40;4.50;;;;;;;30.21;57.37;101034.34;5069181;28;69352;-36
2021/05/29 02:16:31;;;;;;;4.95;4.20;;;;;;;30.03;56.35;101020.63;5068299;27;66925;-35
2021/05/29 02:19:04;;;;;;;9.02;3.65;;;;;;;29.92;55.31;101029.41;5066653;28;69289;-35
2021/05/29 02:21:36;;;;;;;16.33;3.90;;;;;;;29.79;53.95;101024.84;5068792;28;67438;-36
2021/05/29 02:24:08;;;;;;;8.10;3.50;;;;;;;29.65;52.38;101024.03;5041816;28;69962;-37
2021/05/29 02:26:40;;;;;;;15.10;4.00;;;;;;;29.60;50.71;101026.50;5068066;28;65461;-36
2021/05/29 02:29:11;;;;;;;22.40;4.40;;;;;;;29.46;50.20;101020.25;5067467;27;70228;-36
2021/05/29 02:31:42;;;;;;;7.60;4.13;;;;;;;29.49;50.22;101033.34;5072045;27;66392;-36
2021/05/29 02:34:12;;;;;;;10.93;4.10;;;;;;;29.38;49.88;101034.78;5075434;27;70120;-35
2021/05/29 02:36:43;;;;;;;10.23;3.50;;;;;;;29.32;50.14;101034.78;5072959;28;65277;-36
2021/05/29 02:39:16;;;;;;;18.20;4.05;;;;;;;29.15;48.92;101010.03;5070459;27;70791;-35
2021/05/29 02:41:47;;;;;;;;;;;;;;;28.93;48.86;101030.94;5070060;28;65377;-37
2021/05/29 02:44:18;;;;;;;7.90;3.15;;;;;;;29.12;47.92;101030.19;5063491;28;70007;-35
2021/05/29 02:46:49;;;;;;;11.80;3.45;;;;;;;29.14;48.85;101027.28;5072775;28;65306;-35
2021/05/29 02:49:19;;;;;;;11.18;3.60;;;;;;;29.14;49.07;101022.72;5060014;28;69011;-34
2021/05/29 02:51:50;;;;;;;4.45;3.05;;;;;;;29.08;49.01;101007.31;5067860;28;66437;-35
2021/05/29 02:54:23;;;;;;;10.00;4.00;;;;;;;29.14;48.44;101019.16;5073297;27;69966;-34
2021/05/29 02:56:54;;;;;;;19.70;3.30;;;;;;;29.19;49.06;101024.78;5069083;27;65250;-34
2021/05/29 02:59:27;;;;;;;16.15;3.33;;;;;;;29.16;48.10;101027.91;5062040;27;69893;-34
2021/05/29 03:01:58;;;;;;;9.48;3.13;;;;;;;29.13;48.14;101009.41;5070293;28;65614;-34
2021/05/29 03:04:29;;;;;;;20.70;3.60;;;;;;;29.17;47.37;101010.69;5068816;27;71156;-34
2021/05/29 03:06:59;;;;;;;47.30;3.97;;;;;;;29.18;48.07;101018.56;5068371;27;65307;-36
2021/05/29 03:09:35;;;;;;;29.60;3.30;;;;;;;29.19;48.50;101008.59;5069069;28;70177;-35
2021/05/29 03:12:15;;;;;;;11.93;3.13;;;;;;;29.16;47.55;101003.59;5064967;27;65497;-34
2021/05/29 03:14:46;;;;;;;26.20;3.90;;;;;;;29.18;47.75;101006.94;5075243;27;71946;-35
2021/05/29 03:17:21;;;;;;;22.05;3.63;;;;;;;29.20;47.83;101010.25;5076627;28;65907;-34
2021/05/29 03:19:53;;;;;;;27.52;4.00;;;;;;;29.20;49.20;101001.31;5073483;27;70652;-35
2021/05/29 03:22:25;;;;;;;10.90;3.33;;;;;;;29.18;48.56;100996.13;5063584;28;65871;-34
2021/05/29 03:24:55;;;;;;;21.08;3.58;;;;;;;29.25;48.24;100996.94;5064818;28;70024;-35
2021/05/29 03:27:26;;;;;;;11.40;3.40;;;;;;;29.27;48.39;101004.84;5066199;28;66988;-34
2021/05/29 03:29:57;;;;;;;13.32;3.65;;;;;;;29.24;47.17;101000.69;5070469;28;70824;-34
2021/05/29 03:32:28;;;;;;;8.00;3.33;;;;;;;29.28;48.21;100991.16;5064383;28;65717;-34
2021/05/29 03:34:59;;;;;;;13.95;3.33;;;;;;;29.39;51.09;100990.53;5064357;28;70062;-33
2021/05/29 03:37:30;;;;;;;;;;;;;;;29.17;50.56;100986.38;5065432;28;65439;-35
2021/05/29 03:40:01;;;;;;;6.30;3.42;;;;;;;29.43;49.67;100979.31;5062433;28;70300;-34
2021/05/29 03:42:32;;;;;;;11.52;3.20;;;;;;;29.45;48.86;100969.09;5064516;27;66405;-35
2021/05/29 03:45:12;;;;;;;7.57;3.95;;;;;;;29.45;47.45;100977.22;5072795;28;70274;-35
2021/05/29 03:47:45;;;;;;;6.43;2.80;;;;;;;29.40;47.26;100967.03;5073607;28;67291;-34
2021/05/29 03:50:17;;;;;;;;;;;;;;;29.07;46.65;100967.03;5075057;27;70007;-35
2021/05/29 03:52:48;;;;;;;;;;;;;;;28.98;45.71;100962.84;5073251;27;66992;-35
2021/05/29 03:55:20;;;;;;;6.63;3.03;;;;;;;28.96;45.87;100912.53;5068986;28;70243;-35
2021/05/29 03:57:51;;;;;;;;;;;;;;;28.96;46.42;100950.34;5072360;28;65330;-35
2021/05/29 04:00:22;;;;;;;4.75;3.30;;;;;;;29.24;46.11;100952.06;5071173;28;70535;-35
2021/05/29 04:02:54;;;;;;;6.22;3.20;;;;;;;29.23;45.78;100933.38;5062056;28;66367;-35
2021/05/29 04:05:25;;;;;;;5.22;3.00;;;;;;;29.27;45.94;100932.72;5072274;27;70816;-35
2021/05/29 04:07:55;;;;;;;12.32;3.10;;;;;;;29.26;46.15;100931.09;5073047;27;65885;-36
2021/05/29 04:10:29;;;;;;;17.92;3.03;;;;;;;29.31;46.09;100930.44;5066494;28;70216;-35
2021/05/29 04:13:01;;;;;;;9.93;3.33;;;;;;;29.31;45.36;100925.91;5069529;28;65461;-36
2021/05/29 04:15:31;;;;;;;8.23;3.42;;;;;;;29.31;45.36;100925.03;5067871;28;70024;-34
2021/05/29 04:18:02;;;;;;;13.52;3.17;;;;;;;29.33;44.84;100929.19;5062607;28;65359;-34
2021/05/29 04:20:32;;;;;;;17.20;3.40;;;;;;;29.34;43.93;100925.47;5074149;27;70293;-34
2021/05/29 04:23:03;;;;;;;13.52;2.70;;;;;;;29.33;44.00;100923.78;5068073;27;66559;-35
2021/05/29 04:25:34;;;;;;;10.93;2.92;;;;;;;29.39;43.48;100911.31;5068808;28;70301;-35
2021/05/29 04:28:05;;;;;;;10.52;3.50;;;;;;;29.42;44.03;100910.06;5074115;27;67071;-35
2021/05/29 04:30:36;;;;;;;11.90;3.53;;;;;;;29.40;43.72;100913.00;5068234;27;68934;-35
2021/05/29 04:33:08;;;;;;;25.83;3.40;;;;;;;29.43;43.80;100906.34;5074752;27;66365;-34
2021/05/29 04:35:43;;;;;;;15.95;3.20;;;;;;;29.42;44.14;100894.72;5061877;27;70121;-34
2021/05/29 04:38:16;;;;;;;20.27;3.80;;;;;;;29.42;44.37;100894.72;5065965;28;66450;-33
2021/05/29 04:40:46;;;;;;;8.68;3.58;;;;;;;29.43;44.52;100887.44;5074183;27;69351;-34
2021/05/29 04:43:20;;;;;;;7.38;3.08;;;;;;;29.36;43.70;100880.16;5078687;27;65560;-34
2021/05/29 04:45:54;;;;;;;9.65;3.22;;;;;;;29.37;43.79;100875.59;5073858;27;70080;-34
2021/05/29 04:48:26;;;;;;;7.72;3.15;;;;;;;29.36;43.93;100877.47;5074562;28;65607;-34
2021/05/29 04:51:13;;;;;;;14.00;3.63;;;;;;;29.36;43.86;100879.31;5073642;28;69961;-34
2021/05/29 04:53:46;;;;;;;8.48;2.97;;;;;;;29.36;44.24;100873.91;5076811;28;66000;-34
2021/05/29 04:56:17;;;;;;;11.77;2.78;;;;;;;29.35;43.50;100867.69;5074688;27;70145;-34
2021/05/29 04:58:48;;;;;;;9.27;3.33;;;;;;;29.35;43.40;100862.28;5076495;28;65763;-34
2021/05/29 05:01:18;;;;;;;16.45;3.13;;;;;;;29.33;43.54;100864.34;5075459;27;68796;-36
2021/05/29 05:03:49;;;;;;;34.10;3.58;;;;;;;29.29;43.72;100857.72;5069490;27;65937;-36
2021/05/29 05:06:20;;;;;;;29.05;3.47;;;;;;;29.26;42.97;100857.31;5074516;27;70039;-36
2021/05/29 05:08:50;;;;;;;42.22;3.78;;;;;;;29.25;43.31;100859.16;5073054;28;65500;-36
2021/05/29 05:11:22;;;;;;;32.83;3.65;;;;;;;29.20;43.63;100850.03;5069572;27;70029;-36
2021/05/29 05:13:56;;;;;;;14.88;3.50;;;;;;;29.19;43.11;100843.78;5071674;27;65534;-35
2021/05/29 05:16:26;;;;;;;11.95;3.13;;;;;;;29.16;42.82;100847.75;5072916;28;70671;-36
2021/05/29 05:19:00;;;;;;;21.52;2.97;;;;;;;29.10;42.53;100842.38;5074691;27;67339;-37
2021/05/29 05:21:32;;;;;;;18.35;3.60;;;;;;;29.19;44.45;100843.78;5069227;28;70578;-38
2021/05/29 05:24:03;;;;;;;16.50;3.35;;;;;;;29.26;43.17;100836.53;5068090;28;66725;-36
2021/05/29 05:26:36;;;;;;;10.82;3.63;;;;;;;29.25;42.97;100828.63;5068844;27;69540;-38
2021/05/29 05:29:09;;;;;;;18.33;3.97;;;;;;;29.29;42.23;100830.69;5069248;27;66338;-36
2021/05/29 05:31:41;;;;;;;8.93;3.45;;;;;;;29.31;41.48;100833.16;5072091;27;69847;-37
2021/05/29 05:34:13;;;;;;;7.60;3.88;;;;;;;29.22;41.53;100808.25;5069103;28;65813;-36
2021/05/29 05:36:46;;;;;;;11.30;2.85;;;;;;;29.23;41.00;100804.53;5071237;28;70041;-36
2021/05/29 05:39:17;;;;;;;13.55;3.47;;;;;;;29.30;41.36;100805.34;5064013;27;65801;-37
2021/05/29 05:41:49;;;;;;;4.80;2.85;;;;;;;29.31;40.89;100814.25;5067322;27;70000;-37
2021/05/29 05:44:21;;;;;;;7.47;3.03;;;;;;;29.27;41.20;100794.94;5070843;27;66680;-37
2021/05/29 05:47:04;;;;;;;6.85;3.13;;;;;;;29.30;40.47;100799.09;5073268;28;69543;-39
2021/05/29 05:49:40;;;;;;;4.90;2.78;;;;;;;29.33;40.41;100793.28;5072964;28;66488;-39
2021/05/29 05:52:39;;;;;;;4.28;2.63;;;;;;;29.33;40.86;100796.81;5069258;28;70415;-39
2021/05/29 05:55:14;;;;;;;7.68;3.08;;;;;;;29.36;41.65;100782.03;5068698;28;65819;-39
2021/05/29 05:57:45;;;;;;;7.50;3.13;;;;;;;29.33;41.16;100783.28;5066593;28;69113;-39
2021/05/29 06:00:19;;;;;;;5.13;3.08;;;;;;;29.32;40.92;100776.25;5067497;28;65901;-41
2021/05/29 06:02:50;;;;;;;4.47;2.60;;;;;;;29.25;41.16;100764.59;5070186;28;69095;-40
2021/05/29 06:05:30;;;;;;;2.90;2.47;;;;;;;29.33;40.47;100769.78;5069262;28;66305;-37
2021/05/29 06:08:04;;;;;;;5.97;2.92;;;;;;;29.34;40.80;100757.94;5070389;28;69232;-36
2021/05/29 06:10:36;;;;;;;6.53;2.47;;;;;;;29.30;40.47;100756.69;5067989;28;66246;-41
2021/05/29 06:13:16;;;;;;;7.57;2.95;;;;;;;29.33;40.13;100748.16;5069414;28;70571;-40
2021/05/29 06:21:32;;;;;;;7.28;2.28;;;;;;;29.30;40.00;100740.50;5053536;28;65588;-38
2021/05/29 06:24:07;;;;;;;8.63;2.75;;;;;;;29.31;40.39;100747.56;5070860;27;70262;-39
2021/05/29 06:26:43;;;;;;;4.10;2.40;;;;;;;29.30;40.03;100743.19;5074629;27;66195;-38
2021/05/29 06:29:14;;;;;;;4.65;2.17;;;;;;;29.20;39.66;100729.31;5072013;27;69971;-38
2021/05/29 06:31:46;;;;;;;;;;;;;;;28.94;40.22;100736.41;5068805;28;66055;-40
2021/05/29 06:34:20;;;;;;;2.85;2.25;;;;;;;28.94;40.22;100676.16;5066705;27;68998;-38
2021/05/29 06:36:51;;;;;;;10.02;2.40;;;;;;;29.24;40.09;100718.91;5070697;27;67003;-36
2021/05/29 06:39:22;;;;;;;7.30;2.15;;;;;;;29.27;39.84;100718.47;5070322;28;69329;-37
2021/05/29 06:41:53;;;;;;;3.78;2.60;;;;;;;29.24;39.63;100711.63;5064870;28;65367;-36
2021/05/29 06:44:27;;;;;;;5.25;2.08;;;;;;;29.26;39.27;100706.84;5073952;27;70069;-37
2021/05/29 06:46:58;;;;;;;3.08;2.17;;;;;;;29.25;38.78;100710.56;5055523;28;65235;-37
2021/05/29 06:49:29;;;;;;;4.35;2.55;;;;;;;29.26;39.15;100712.25;5068987;27;68149;-37
2021/05/29 06:52:03;;;;;;;2.95;2.58;;;;;;;29.24;39.01;100697.31;5072564;28;66291;-38
2021/05/29 07:00:10;;;;;;;4.32;2.35;;;;;;;29.25;38.92;100678.16;5068298;27;69834;-39
2021/05/29 07:02:41;;;;;;;3.28;2.40;;;;;;;29.24;39.13;100671.09;5070828;28;66335;-37
2021/05/29 07:05:15;;;;;;;2.42;2.22;;;;;;;29.25;38.98;100667.34;5077236;27;69449;-36
2021/05/29 07:07:46;;;;;;;4.60;2.30;;;;;;;29.23;38.34;100664.06;5076189;27;66135;-39
2021/05/29 07:10:21;;;;;;;2.50;1.88;;;;;;;29.22;38.38;100656.97;5064150;28;69356;-37
2021/05/29 07:12:51;;;;;;;3.63;2.42;;;;;;;29.13;38.72;100639.38;5071800;28;66060;-37
2021/05/29 07:15:27;;;;;;;3.13;2.13;;;;;;;29.20;38.45;100648.28;5071419;27;70218;-38
2021/05/29 07:18:04;;;;;;;5.95;2.40;;;;;;;29.16;38.83;100638.94;5073838;28;66684;-38
2021/05/29 07:20:36;;;;;;;2.63;2.40;;;;;;;29.16;38.50;100636.22;5068331;28;70294;-37
2021/05/29 07:23:13;;;;;;;2.28;1.83;;;;;;;29.20;38.69;100640.19;5071022;27;66449;-37
2021/05/29 07:25:44;;;;;;;5.93;2.20;;;;;;;29.15;38.16;100623.78;5066710;28;69450;-36
2021/05/29 07:28:15;;;;;;;3.97;2.00;;;;;;;29.12;38.20;100618.81;5070519;27;65311;-37
2021/05/29 07:30:48;;;;;;;2.60;2.40;;;;;;;29.09;38.10;100611.16;5068987;28;69559;-37
2021/05/29 07:33:23;;;;;;;2.58;2.10;;;;;;;29.15;38.44;100618.38;5062724;27;65514;-37
2021/05/29 07:35:55;;;;;;;3.40;2.20;;;;;;;29.15;38.20;100618.38;5066440;28;69991;-38
2021/05/29 07:38:27;;;;;;;3.88;2.42;;;;;;;29.15;37.99;100612.97;5065802;27;66398;-37
2021/05/29 07:40:59;;;;;;;3.45;1.92;;;;;;;29.14;38.36;100597.78;5068176;28;70340;-38
2021/05/29 07:43:33;;;;;;;3.10;2.80;;;;;;;29.13;38.29;100598.84;5062052;28;65204;-37
2021/05/29 07:46:05;;;;;;;4.22;2.55;;;;;;;29.16;37.96;100603.81;5062124;28;69437;-37
2021/05/29 07:48:39;;;;;;;5.65;2.72;;;;;;;29.18;38.18;100593.63;5067630;27;66665;-36
2021/05/29 07:51:10;;;;;;;5.27;2.47;;;;;;;29.05;37.98;100577.50;5066548;28;70077;-36
2021/05/29 07:53:42;;;;;;;2.80;2.30;;;;;;;28.78;37.54;100531.69;5066105;27;66032;-40
2021/05/29 07:56:18;;;;;;;4.35;2.58;;;;;;;28.83;37.66;100528.34;5068431;27;70302;-36
2021/05/29 07:58:51;;;;;;;3.67;2.10;;;;;;;29.07;37.84;100573.53;5062941;27;65871;-38
2021/05/29 08:01:23;;;;;;;;;;;;;;;28.85;38.11;100581.06;5065624;28;70225;-37
2021/05/29 08:03:55;;;;;;;5.35;2.20;;;;;;;29.16;38.14;100582.22;5061716;28;66704;-37
2021/05/29 08:06:29;;;;;;;2.15;1.95;;;;;;;29.19;37.92;100576.38;5062378;28;70055;-40
2021/05/29 08:09:07;;;;;;;3.63;2.60;;;;;;;29.17;38.16;100560.41;5065795;27;65439;-38
2021/05/29 08:11:41;;;;;;;5.05;2.50;;;;;;;29.20;38.44;100561.84;5070514;28;68997;-33
2021/05/29 08:14:12;;;;;;;5.68;2.33;;;;;;;29.19;38.54;100565.56;5065048;27;67294;-33
2021/05/29 08:16:45;;;;;;;6.25;2.13;;;;;;;29.25;39.47;100561.19;5072514;27;69209;-33
2021/05/29 08:19:19;;;;;;;9.38;2.53;;;;;;;29.20;41.92;100548.34;5063265;28;66050;-32
2021/05/29 08:21:52;;;;;;;17.75;2.83;;;;;;;29.32;42.91;100557.41;5071561;28;70066;-33
2021/05/29 08:24:26;;;;;;;11.82;3.00;;;;;;;29.47;45.99;100550.84;5077099;27;65749;-33
2021/05/29 08:27:00;;;;;;;20.15;4.07;;;;;;;29.64;49.80;100533.06;5079724;27;69395;-31
2021/05/29 08:29:34;;;;;;;18.08;5.60;;;;;;;29.97;51.84;100534.66;5075035;28;66049;-32
2021/05/29 08:32:23;;;;;;;32.95;6.45;;;;;;;30.32;54.85;100550.41;5075459;28;69548;-32
2021/05/29 08:34:57;;;;;;;19.35;6.90;;;;;;;30.56;55.57;100544.06;5072623;28;65385;-32
2021/05/29 08:37:32;;;;;;;20.10;7.13;;;;;;;30.75;56.53;100544.06;5078226;27;70716;-33
2021/05/29 08:40:05;;;;;;;29.75;7.35;;;;;;;30.94;56.38;100535.69;5073625;27;65372;-32
2021/05/29 08:42:43;;;;;;;25.45;6.90;;;;;;;31.14;57.43;100535.41;5072694;27;70038;-32
2021/05/29 08:45:20;;;;;;;15.88;6.18;;;;;;;31.32;58.98;100541.84;5080037;27;66086;-33
2021/05/29 08:47:53;;;;;;;8.55;5.68;;;;;;;31.40;58.37;100533.44;5076964;27;69582;-32
2021/05/29 08:50:28;;;;;;;9.80;6.78;;;;;;;31.58;59.56;100536.03;5077880;28;66521;-34
2021/05/29 08:53:06;;;;;;;11.55;6.00;;;;;;;31.69;58.61;100530.88;5077727;27;69870;-34
2021/05/29 08:55:38;;;;;;;18.77;6.80;;;;;;;31.80;59.09;100532.78;5075166;28;66195;-33
2021/05/29 08:58:10;;;;;;;19.88;6.07;;;;;;;31.93;59.40;100540.72;5075648;27;70242;-34
2021/05/29 09:00:41;;;;;;;11.68;5.78;;;;;;;32.02;59.73;100539.28;5077934;28;65898;-34
2021/05/29 09:03:14;;;;;;;22.33;8.13;;;;;;;32.07;60.58;100529.59;5078989;27;69996;-34
2021/05/29 09:05:53;;;;;;;16.77;7.82;;;;;;;32.15;61.80;100535.53;5077594;27;64914;-32
2021/05/29 09:08:26;;;;;;;22.60;7.22;;;;;;;32.19;60.24;100525.00;5066185;28;69178;-33
2021/05/29 09:10:59;;;;;;;42.83;11.20;;;;;;;31.95;60.72;100481.59;5074398;28;65375;-32
2021/05/29 09:13:31;;;;;;;48.70;11.07;;;;;;;32.04;61.10;100496.47;5074148;28;70879;-34
2021/05/29 09:16:05;;;;;;;42.80;10.27;;;;;;;31.99;62.45;100493.63;5077927;27;66127;-32
2021/05/29 09:18:46;;;;;;;24.50;9.40;;;;;;;32.36;63.08;100553.06;5076694;27;69044;-32
2021/05/29 09:21:33;;;;;;;16.45;8.43;;;;;;;32.00;65.17;100516.97;5077545;27;65388;-31
2021/05/29 09:24:12;;;;;;;15.80;8.60;;;;;;;32.40;64.62;100570.53;5073363;27;70263;-31
2021/05/29 09:26:49;;;;;;;18.30;9.02;;;;;;;32.43;64.85;100575.50;5069881;27;66854;-32
2021/05/29 09:29:30;;;;;;;24.17;8.75;;;;;;;32.35;64.47;100566.88;5071719;27;69133;-33
2021/05/29 09:32:03;;;;;;;15.18;8.73;;;;;;;32.19;64.19;100541.28;5064451;28;66152;-34
2021/05/29 09:34:46;;;;;;;17.13;6.90;;;;;;;32.47;63.84;100581.28;5071240;27;70362;-34
2021/05/29 09:37:27;;;;;;;11.07;5.72;;;;;;;32.22;63.60;100551.66;5066261;28;65985;-34
2021/05/29 09:40:11;;;;;;;9.10;6.28;;;;;;;32.45;64.69;100605.91;5068181;27;70345;-34
2021/05/29 09:42:44;;;;;;;15.93;6.93;;;;;;;32.47;63.35;100598.41;5067360;28;65773;-34
2021/05/29 09:45:30;;;;;;;9.88;6.00;;;;;;;32.50;63.61;100594.38;5066845;28;68923;-34
2021/05/29 09:48:18;;;;;;;6.80;5.18;;;;;;;32.15;63.96;100550.94;5069736;27;66408;-35
2021/05/29 09:51:10;;;;;;;8.45;5.85;;;;;;;32.38;64.78;100628.84;5069305;27;70530;-33
2021/05/29 09:53:53;;;;;;;6.38;4.60;;;;;;;32.51;62.91;100647.63;5069397;28;65936;-32
2021/05/29 09:56:34;;;;;;;6.68;5.43;;;;;;;32.55;62.91;100637.94;5070695;27;69859;-32
2021/05/29 09:59:05;;;;;;;9.98;5.28;;;;;;;32.56;62.97;100634.16;5066611;27;65371;-32
2021/05/29 10:01:53;;;;;;;6.05;5.55;;;;;;;32.54;64.00;100635.47;5072181;27;69841;-33
2021/05/29 10:07:06;;;;;;;;;;;;;;;32.32;64.44;100646.91;5069673;28;70500;-32
2021/05/29 10:09:37;;;;;;;31.75;21.75;;;;;;;32.49;63.41;100650.59;5065775;28;66246;-32
2021/05/29 10:12:08;;;;;;;17.10;12.68;;;;;;;32.54;62.93;100649.03;5070817;28;70043;-33
2021/05/29 10:14:39;;;;;;;;;;;;;;;32.24;64.06;100674.38;5068754;27;65350;-33
2021/05/29 10:17:12;;;;;;;11.13;8.68;;;;;;;32.45;63.04;100668.34;5066231;27;69150;-33
2021/05/29 10:19:45;;;;;;;10.23;7.27;;;;;;;32.45;62.96;100676.50;4941986;28;2664892;-33
2021/05/29 10:22:17;;;;;;;6.00;5.50;;;;;;;32.19;63.11;100655.25;5072906;27;69484;-33
2021/05/29 10:24:47;;;;;;;;;;;;;;;32.17;64.66;100706.22;5069731;27;66323;-32
2021/05/29 10:27:24;;;;;;;4.22;3.83;;;;;;;32.16;63.94;100693.72;5076315;28;69633;-33
2021/05/29 10:29:59;;;;;;;5.57;3.97;;;;;;;32.03;64.05;100684.72;5058640;28;66660;-33
2021/05/29 10:32:30;;;;;;;9.45;4.65;;;;;;;32.31;64.20;100734.81;5076473;27;70230;-33
2021/05/29 10:35:05;;;;;;;9.87;4.63;;;;;;;32.36;64.74;100717.81;5067376;27;66073;-33
2021/05/29 10:37:38;;;;;;;12.18;5.00;;;;;;;32.17;65.09;100670.94;5065198;27;70041;-32
2021/05/29 10:40:30;;;;;;;13.38;5.15;;;;;;;32.41;65.43;100723.38;5069852;28;66136;-31
2021/05/29 10:43:26;;;;;;;8.32;5.05;;;;;;;31.73;65.80;100641.38;5069876;27;70289;-31
2021/05/29 10:46:03;;;;;;;8.95;5.15;;;;;;;32.34;64.48;100734.34;5060256;28;65179;-34
2021/05/29 10:48:50;;;;;;;5.90;4.85;;;;;;;31.88;66.13;100684.31;5073415;28;69213;-32
2021/05/29 10:51:38;;;;;;;5.70;4.72;;;;;;;31.91;66.57;100702.88;5076338;27;66132;-31
2021/05/29 10:54:13;;;;;;;5.07;4.57;;;;;;;32.23;65.41;100737.84;5070228;28;70251;-32
2021/05/29 10:56:56;;;;;;;5.50;4.13;;;;;;;31.97;66.34;100710.06;5074275;28;64995;-32
2021/05/29 10:59:38;;;;;;;6.60;4.97;;;;;;;32.01;66.90;100727.56;5072832;28;69755;-32
2021/05/29 11:02:09;;;;;;;12.70;4.22;;;;;;;32.11;65.99;100758.72;5073552;28;66101;-31
2021/05/29 11:04:40;;;;;;;7.82;5.50;;;;;;;31.99;66.02;100759.50;5076453;27;69024;-32
2021/05/29 11:07:18;;;;;;;65.03;38.42;;;;;;;32.11;66.65;100788.56;5068147;28;65975;-32
2021/05/29 11:09:55;;;;;;;157.65;104.18;;;;;;;32.10;66.40;100786.94;5072354;28;69461;-32
2021/05/29 11:12:56;;;;;;;209.88;130.10;;;;;;;31.98;67.94;100790.44;5068551;28;66119;-33
2021/05/29 11:15:58;;;;;;;177.30;114.80;;;;;;;32.02;67.23;100801.63;5063728;28;70065;-32
2021/05/29 11:18:29;;;;;;;136.68;87.78;;;;;;;31.96;66.77;100778.16;5067239;27;66284;-33
2021/05/29 11:21:06;;;;;;;108.13;69.35;;;;;;;31.95;67.54;100782.72;5069287;28;69348;-33
2021/05/29 11:23:38;;;;;;;85.35;50.90;;;;;;;31.85;67.07;100752.59;5067620;28;65313;-32
2021/05/29 11:26:08;;;;;;;;;;;;;;;31.60;68.85;100761.69;5071978;27;70105;-33
2021/05/29 11:28:41;;;;;;;47.40;24.63;;;;;;;31.45;68.20;100726.00;5066657;27;66721;-33
2021/05/29 11:31:12;;;;;;;25.00;18.90;;;;;;;31.70;67.92;100771.16;5069242;28;70234;-33
2021/05/29 11:33:54;;;;;;;20.40;15.77;;;;;;;31.72;68.61;100790.75;5064643;28;66068;-31
2021/05/29 11:36:38;;;;;;;12.88;11.52;;;;;;;31.73;68.17;100792.38;5070255;28;69279;-31
2021/05/29 11:39:14;;;;;;;10.93;9.20;;;;;;;31.39;67.79;100741.28;5074870;27;65323;-32
2021/05/29 11:41:44;;;;;;;8.07;7.47;;;;;;;31.67;67.77;100794.13;5065151;27;69021;-32
2021/05/29 11:44:23;;;;;;;14.07;7.18;;;;;;;31.37;68.39;100739.84;5066704;27;65372;-33
2021/05/29 11:46:53;;;;;;;9.00;7.38;;;;;;;31.60;68.76;100799.63;5065314;28;70468;-33
2021/05/29 11:49:36;;;;;;;6.55;6.13;;;;;;;31.25;69.61;100757.91;5070292;28;65765;-33
2021/05/29 11:52:08;;;;;;;6.57;6.03;;;;;;;31.57;68.77;100829.94;5069688;28;69872;-32
2021/05/29 11:54:40;;;;;;;6.28;5.78;;;;;;;31.51;68.36;100827.25;5073111;27;67208;-33
2021/05/29 11:57:10;;;;;;;11.57;6.22;;;;;;;31.54;69.28;100837.69;5066891;27;69242;-32
2021/05/29 11:59:41;;;;;;;8.50;6.33;;;;;;;31.49;69.44;100822.09;5070548;28;65682;-33
2021/05/29 12:02:12;;;;;;;9.00;6.47;;;;;;;31.52;69.59;100818.91;5069946;27;69614;-33
2021/05/29 12:04:50;;;;;;;;;;;;;;;31.29;70.82;100816.03;5066967;27;65401;-33
2021/05/29 12:07:24;;;;;;;6.88;6.25;;;;;;;31.47;69.96;100820.66;5072525;28;69962;-32
2021/05/29 12:09:57;;;;;;;12.25;5.85;;;;;;;31.47;69.74;100826.91;5075046;27;65899;-32